Time;durP1;ratioP1;P1;durP2;ratioP2;P2;SDS_P1;SDS_P2;PMS_P1;PMS_P2;Temp;Humidity;BMP_temperature;BMP_pressure;BME280_temperature;BME280_humidity;BME280_pressure;Samples;Min_cycle;Max_cycle;Signal;HPM_P1;HPM_P2
2024/05/05 00:00:21;;;;;;;8.27;4.20;;;;;;;10.49;100.00;96945.72;5543995;25;20612;-68
2024/05/05 00:02:47;;;;;;;8.10;3.93;;;;;;;10.07;100.00;96946.91;5545622;25;20223;-68
2024/05/05 00:05:12;;;;;;;7.03;3.70;;;;;;;10.11;100.00;96953.63;5543903;25;20582;-68
2024/05/05 00:07:38;;;;;;;7.93;4.00;;;;;;;10.28;100.00;96938.06;5545542;25;20221;-68
2024/05/05 00:10:04;;;;;;;7.70;3.70;;;;;;;10.38;100.00;96935.88;5543584;25;20223;-68
2024/05/05 00:12:30;;;;;;;8.37;4.43;;;;;;;10.35;100.00;96941.22;5545486;25;20306;-68
2024/05/05 00:17:01;;;;;;;9.73;4.57;;;;;;;10.24;100.00;96946.94;5582783;25;20947;-68
2024/05/05 00:19:27;;;;;;;8.80;4.80;;;;;;;10.25;100.00;96942.56;5545749;25;20217;-68
2024/05/05 00:21:52;;;;;;;8.10;4.33;;;;;;;10.05;100.00;96949.59;5545575;25;20222;-67
2024/05/05 00:24:18;;;;;;;7.00;3.90;;;;;;;9.97;100.00;96956.91;5543781;25;20227;-68
2024/05/05 00:26:43;;;;;;;7.87;3.67;;;;;;;10.09;100.00;96965.84;5545687;25;20217;-68
2024/05/05 00:29:09;;;;;;;7.50;3.70;;;;;;;10.12;100.00;96957.91;5545448;25;20264;-68
2024/05/05 00:31:34;;;;;;;8.60;3.30;;;;;;;10.23;100.00;96950.44;5545601;25;20218;-68
2024/05/05 00:34:00;;;;;;;6.80;3.57;;;;;;;10.28;100.00;96950.22;5545525;25;20255;-68
2024/05/05 00:36:25;;;;;;;6.60;3.90;;;;;;;10.26;100.00;96945.09;5545455;25;20209;-68
2024/05/05 00:40:58;;;;;;;6.75;3.50;;;;;;;10.69;100.00;96935.13;5582925;25;20949;-68
2024/05/05 00:43:24;;;;;;;6.50;3.23;;;;;;;10.93;100.00;96932.16;5544005;25;20225;-68
2024/05/05 00:45:49;;;;;;;7.03;3.40;;;;;;;11.02;100.00;96926.47;5545642;25;20252;-69
2024/05/05 00:48:17;;;;;;;7.30;3.50;;;;;;;11.19;100.00;96932.53;5545781;25;20258;-69
2024/05/05 00:50:42;;;;;;;7.30;3.58;;;;;;;11.23;100.00;96923.66;5543762;25;20220;-69
2024/05/05 00:53:09;;;;;;;7.23;3.57;;;;;;;11.41;100.00;96929.63;5545623;25;20223;-69
2024/05/05 00:55:34;;;;;;;7.20;3.58;;;;;;;11.53;100.00;96922.00;5543864;25;20307;-69
2024/05/05 00:58:00;;;;;;;6.87;3.30;;;;;;;11.73;100.00;96927.81;5545466;25;20223;-68
2024/05/05 01:00:27;;;;;;;6.50;3.10;;;;;;;11.84;100.00;96928.06;5543815;25;20247;-68
2024/05/05 01:04:55;;;;;;;6.78;3.47;;;;;;;11.94;100.00;96933.63;5582893;25;20534;-69
2024/05/05 01:07:21;;;;;;;6.90;3.20;;;;;;;12.11;100.00;96930.03;5543979;25;20224;-68
2024/05/05 01:09:47;;;;;;;7.07;3.63;;;;;;;12.12;100.00;96941.31;5545773;25;20501;-68
2024/05/05 01:12:12;;;;;;;6.20;2.73;;;;;;;12.16;100.00;96938.44;5545548;25;20224;-68
2024/05/05 01:14:38;;;;;;;6.40;3.07;;;;;;;12.23;100.00;96939.75;5545612;25;20656;-67
2024/05/05 01:17:03;;;;;;;6.13;2.87;;;;;;;12.35;100.00;96937.34;5545576;25;20255;-67
2024/05/05 01:19:29;;;;;;;6.43;3.10;;;;;;;12.29;100.00;96934.16;5545537;25;20213;-68
2024/05/05 01:21:54;;;;;;;5.70;2.73;;;;;;;12.35;100.00;96939.94;5545460;25;20225;-67
2024/05/05 01:24:20;;;;;;;6.50;3.10;;;;;;;12.33;100.00;96941.81;5545591;25;20624;-67
2024/05/05 01:28:52;;;;;;;6.15;2.80;;;;;;;12.31;100.00;96938.47;5582954;25;21074;-67
2024/05/05 01:31:18;;;;;;;6.10;2.60;;;;;;;12.15;100.00;96941.97;5545797;25;20317;-67
2024/05/05 01:33:44;;;;;;;6.17;2.67;;;;;;;12.04;100.00;96939.13;5545622;25;20258;-67
2024/05/05 01:36:09;;;;;;;6.40;3.23;;;;;;;12.04;100.00;96945.19;5543793;25;20284;-67
2024/05/05 01:38:35;;;;;;;5.93;2.73;;;;;;;12.03;100.00;96934.84;5545539;25;20318;-67
2024/05/05 01:41:00;;;;;;;6.30;2.60;;;;;;;12.08;100.00;96943.25;5545637;25;20578;-67
2024/05/05 01:43:26;;;;;;;6.97;3.00;;;;;;;12.04;100.00;96936.53;5545619;25;20635;-67
2024/05/05 01:45:51;;;;;;;6.30;2.90;;;;;;;11.99;100.00;96943.75;5543916;25;20614;-67
2024/05/05 01:48:16;;;;;;;6.00;3.00;;;;;;;12.02;100.00;96938.38;5543572;25;20250;-68
2024/05/05 01:52:49;;;;;;;5.93;2.67;;;;;;;11.87;100.00;96935.69;5583164;25;20522;-68
2024/05/05 01:55:15;;;;;;;6.00;2.97;;;;;;;12.00;100.00;96937.63;5545827;25;20318;-67
2024/05/05 01:57:41;;;;;;;5.63;2.60;;;;;;;11.96;100.00;96933.53;5545639;25;20220;-67
2024/05/05 02:00:07;;;;;;;6.23;2.70;;;;;;;11.77;100.00;96936.28;5545761;25;20621;-68
2024/05/05 02:02:34;;;;;;;7.15;3.13;;;;;;;11.86;100.00;96935.78;5545819;25;20220;-67
2024/05/05 02:05:01;;;;;;;6.10;2.90;;;;;;;11.88;100.00;96926.13;5545574;25;20218;-67
2024/05/05 02:07:27;;;;;;;17.08;3.95;;;;;;;11.87;100.00;96929.66;5545472;25;20255;-67
2024/05/05 02:09:52;;;;;;;11.00;3.67;;;;;;;11.87;100.00;96935.69;5545702;25;20555;-66
2024/05/05 02:12:18;;;;;;;9.00;3.23;;;;;;;11.73;100.00;96940.81;5545759;25;20760;-65
2024/05/05 02:16:49;;;;;;;6.10;2.97;;;;;;;11.56;100.00;96952.16;5583055;25;20535;-66
2024/05/05 02:19:15;;;;;;;6.78;2.50;;;;;;;11.55;100.00;96944.44;5543949;25;20221;-65
2024/05/05 02:21:40;;;;;;;16.63;3.23;;;;;;;11.51;100.00;96952.44;5543898;25;20248;-65
2024/05/05 02:24:09;;;;;;;12.73;3.50;;;;;;;11.46;100.00;96948.38;5543863;25;20757;-65
2024/05/05 02:26:34;;;;;;;6.53;2.95;;;;;;;11.43;100.00;96958.97;5545522;25;20737;-65
2024/05/05 02:29:01;;;;;;;7.00;3.27;;;;;;;11.42;100.00;96955.53;5545616;25;20213;-65
2024/05/05 02:31:26;;;;;;;11.77;3.80;;;;;;;11.39;100.00;96954.84;5545634;25;20221;-65
2024/05/05 02:33:52;;;;;;;6.70;3.20;;;;;;;11.41;100.00;96960.81;5545754;25;20262;-66
2024/05/05 02:36:17;;;;;;;8.93;2.93;;;;;;;11.40;100.00;96956.53;5543590;25;20293;-66
2024/05/05 02:40:44;;;;;;;6.75;2.85;;;;;;;11.42;100.00;96962.50;5582920;25;20530;-66
2024/05/05 02:43:10;;;;;;;5.90;2.70;;;;;;;11.46;100.00;96967.44;5543925;25;20287;-66
2024/05/05 02:45:35;;;;;;;7.30;2.80;;;;;;;11.47;100.00;96966.50;5545617;25;20221;-65
2024/05/05 02:48:01;;;;;;;6.53;2.80;;;;;;;11.45;100.00;96970.97;5545640;25;20256;-65
2024/05/05 02:50:29;;;;;;;6.03;2.90;;;;;;;11.36;100.00;96975.84;5545546;25;20255;-65
2024/05/05 02:52:54;;;;;;;6.30;2.80;;;;;;;11.38;100.00;96960.97;5545978;25;20212;-65
2024/05/05 02:55:20;;;;;;;6.73;2.77;;;;;;;11.44;100.00;96968.44;5545536;25;20325;-64
2024/05/05 02:57:45;;;;;;;6.93;2.73;;;;;;;11.33;100.00;96972.47;5545419;25;20312;-65
2024/05/05 03:00:12;;;;;;;6.33;2.77;;;;;;;11.29;100.00;96973.53;5545320;25;20213;-64
2024/05/05 03:04:41;;;;;;;6.22;2.70;;;;;;;11.23;100.00;96978.25;5583063;25;20852;-64
2024/05/05 03:07:11;;;;;;;6.63;2.80;;;;;;;11.22;100.00;96980.00;5545572;25;20324;-64
2024/05/05 03:09:36;;;;;;;6.45;3.08;;;;;;;11.12;100.00;96986.63;5545631;25;20244;-64
2024/05/05 03:12:04;;;;;;;6.63;3.00;;;;;;;11.16;100.00;96990.72;5543846;25;20216;-64
2024/05/05 03:14:30;;;;;;;6.60;2.65;;;;;;;11.17;100.00;96987.22;5545445;25;20444;-64
2024/05/05 03:16:55;;;;;;;14.90;3.27;;;;;;;11.17;100.00;97001.94;5545673;25;20251;-64
2024/05/05 03:19:21;;;;;;;7.90;2.73;;;;;;;11.12;100.00;96999.59;5545561;25;20523;-64
2024/05/05 03:21:47;;;;;;;6.23;2.70;;;;;;;11.13;100.00;96990.88;5543689;25;20224;-64
2024/05/05 03:24:13;;;;;;;6.33;2.60;;;;;;;11.16;100.00;96982.09;5543583;25;20236;-63
2024/05/05 03:28:38;;;;;;;6.63;2.92;;;;;;;11.31;100.00;96973.47;5582984;25;20627;-63
2024/05/05 03:31:04;;;;;;;6.30;2.80;;;;;;;11.35;100.00;96964.59;5545712;25;20224;-64
2024/05/05 03:33:29;;;;;;;5.90;2.50;;;;;;;11.31;100.00;96968.25;5545703;25;20280;-66
2024/05/05 03:35:55;;;;;;;5.80;2.60;;;;;;;11.26;100.00;96978.06;5544067;25;20220;-63
2024/05/05 03:38:20;;;;;;;6.13;2.87;;;;;;;11.11;100.00;97000.50;5545533;25;20730;-63
2024/05/05 03:40:46;;;;;;;6.90;3.20;;;;;;;10.97;100.00;97015.97;5545473;25;20219;-63
2024/05/05 03:43:12;;;;;;;6.07;2.70;;;;;;;10.91;100.00;97024.94;5545391;25;20216;-63
2024/05/05 03:45:37;;;;;;;6.00;2.63;;;;;;;10.90;100.00;97036.25;5543906;25;20231;-63
2024/05/05 03:48:05;;;;;;;6.03;2.60;;;;;;;10.95;100.00;97039.44;5543693;25;20218;-63
2024/05/05 03:52:36;;;;;;;7.05;2.80;;;;;;;10.89;100.00;97050.16;5582929;25;20534;-63
2024/05/05 03:55:02;;;;;;;6.00;2.50;;;;;;;10.89;100.00;97055.34;5545717;25;20220;-63
2024/05/05 03:57:27;;;;;;;6.20;2.83;;;;;;;10.89;100.00;97052.75;5543960;25;20551;-63
2024/05/05 03:59:53;;;;;;;5.90;2.57;;;;;;;10.88;100.00;97057.13;5543828;25;20220;-63
2024/05/05 04:02:18;;;;;;;8.07;2.50;;;;;;;10.89;100.00;97058.78;5543756;25;20633;-63
2024/05/05 04:04:44;;;;;;;6.20;2.80;;;;;;;10.85;100.00;97056.44;5543886;25;20243;-63
2024/05/05 04:07:09;;;;;;;6.47;2.67;;;;;;;10.84;100.00;97058.19;5543761;25;20247;-63
2024/05/05 04:09:35;;;;;;;6.20;2.90;;;;;;;10.84;100.00;97060.78;5545386;25;20655;-63
2024/05/05 04:12:00;;;;;;;6.60;3.10;;;;;;;10.82;100.00;97066.97;5545460;25;20290;-64
2024/05/05 04:16:33;;;;;;;6.32;2.85;;;;;;;10.81;100.00;97062.72;5582966;25;20534;-63
2024/05/05 04:18:58;;;;;;;6.40;3.00;;;;;;;10.77;100.00;97067.22;5545850;25;20779;-63
2024/05/05 04:21:24;;;;;;;7.83;3.30;;;;;;;10.76;100.00;97074.16;5545703;25;20219;-63
2024/05/05 04:23:50;;;;;;;5.83;2.70;;;;;;;10.86;100.00;97071.09;5545670;25;20280;-63
2024/05/05 04:26:15;;;;;;;6.57;3.20;;;;;;;10.86;100.00;97058.97;5545816;25;20221;-63
2024/05/05 04:28:41;;;;;;;6.20;2.80;;;;;;;10.84;100.00;97057.34;5543771;25;20223;-64
2024/05/05 04:31:07;;;;;;;6.27;2.90;;;;;;;10.85;100.00;97064.22;5545527;25;20312;-63
2024/05/05 04:33:33;;;;;;;6.90;3.17;;;;;;;10.87;100.00;97067.56;5545488;25;20214;-63
2024/05/05 04:35:58;;;;;;;6.60;2.60;;;;;;;10.91;100.00;97054.38;5545561;25;20213;-63
2024/05/05 04:40:30;;;;;;;6.50;3.10;;;;;;;10.90;100.00;97062.25;5583380;25;20533;-64
2024/05/05 04:42:59;;;;;;;7.53;3.10;;;;;;;10.99;100.00;97056.56;5545669;25;20218;-64
2024/05/05 04:45:24;;;;;;;5.90;2.60;;;;;;;11.08;100.00;97045.69;5545611;25;20263;-64
2024/05/05 04:47:50;;;;;;;5.97;2.77;;;;;;;11.12;100.00;97034.22;5543853;25;20221;-64
2024/05/05 04:50:15;;;;;;;6.20;2.83;;;;;;;11.21;100.00;97034.69;5545581;25;20684;-65
2024/05/05 04:52:41;;;;;;;6.20;2.97;;;;;;;11.32;100.00;97032.34;5545609;25;20227;-65
2024/05/05 04:55:06;;;;;;;6.00;2.50;;;;;;;11.40;100.00;97009.38;5545449;25;20231;-65
2024/05/05 04:57:32;;;;;;;6.80;3.07;;;;;;;11.45;100.00;97006.53;5545550;25;20689;-65
2024/05/05 04:59:57;;;;;;;9.00;2.73;;;;;;;11.49;100.00;96998.47;5543535;25;20235;-64
2024/05/05 05:04:28;;;;;;;6.63;2.53;;;;;;;11.61;100.00;96996.16;5583101;25;20642;-64
2024/05/05 05:06:55;;;;;;;7.30;3.30;;;;;;;11.59;100.00;96996.22;5545674;25;20224;-64
2024/05/05 05:09:21;;;;;;;5.70;2.40;;;;;;;11.58;100.00;96991.94;5545674;25;20222;-65
2024/05/05 05:11:47;;;;;;;6.37;2.40;;;;;;;11.62;100.00;96990.84;5545604;25;20263;-64
2024/05/05 05:14:12;;;;;;;6.63;2.50;;;;;;;11.64;100.00;96991.63;5543817;25;20448;-64
2024/05/05 05:16:38;;;;;;;5.90;2.63;;;;;;;11.64;100.00;96986.41;5545609;25;20320;-65
2024/05/05 05:19:03;;;;;;;7.10;2.63;;;;;;;11.65;100.00;96979.44;5545685;25;20716;-64
2024/05/05 05:21:29;;;;;;;5.77;2.67;;;;;;;11.71;100.00;96987.75;5545592;25;20321;-64
2024/05/05 05:23:55;;;;;;;8.13;3.00;;;;;;;11.75;100.00;96983.22;5545550;25;20330;-65
2024/05/05 05:28:25;;;;;;;5.60;2.30;;;;;;;11.85;100.00;96986.97;5582957;25;21241;-65
2024/05/05 05:30:51;;;;;;;6.77;2.80;;;;;;;11.95;100.00;96989.94;5545733;25;20221;-65
2024/05/05 05:33:16;;;;;;;5.60;2.70;;;;;;;12.03;100.00;96994.72;5545584;25;20212;-65
2024/05/05 05:35:42;;;;;;;6.23;2.70;;;;;;;12.09;100.00;96989.16;5545618;25;20320;-65
2024/05/05 05:38:07;;;;;;;5.70;2.40;;;;;;;12.18;100.00;96988.63;5545653;25;20554;-65
2024/05/05 05:40:33;;;;;;;6.00;2.73;;;;;;;12.26;100.00;96996.00;5545499;25;20221;-65
2024/05/05 05:42:58;;;;;;;5.70;2.23;;;;;;;12.32;100.00;96997.44;5545501;25;20216;-65
2024/05/05 05:45:24;;;;;;;6.30;2.50;;;;;;;12.41;100.00;96996.91;5545600;25;20288;-65
2024/05/05 05:47:49;;;;;;;6.20;2.70;;;;;;;12.55;100.00;96999.53;5545354;25;20555;-65
2024/05/05 05:52:22;;;;;;;5.70;2.40;;;;;;;12.69;100.00;96988.28;5582928;25;20368;-65
2024/05/05 05:54:48;;;;;;;5.70;2.37;;;;;;;12.72;100.00;96985.53;5545690;25;20678;-64
2024/05/05 05:57:13;;;;;;;5.90;2.63;;;;;;;12.79;100.00;96980.78;5545573;25;20220;-65
2024/05/05 05:59:39;;;;;;;5.63;2.60;;;;;;;12.77;100.00;96983.47;5545520;25;20229;-65
2024/05/05 06:02:04;;;;;;;5.93;2.70;;;;;;;12.74;100.00;96980.22;5512977;25;20220;-64
2024/05/05 06:04:30;;;;;;;5.43;2.30;;;;;;;12.87;100.00;96983.75;5545439;25;20224;-65
2024/05/05 06:06:55;;;;;;;6.17;2.67;;;;;;;12.94;100.00;96984.25;5545510;25;20548;-65
2024/05/05 06:09:21;;;;;;;5.77;2.40;;;;;;;12.75;100.00;96980.13;5512617;25;20595;-64
2024/05/05 06:11:47;;;;;;;5.63;2.40;;;;;;;12.77;100.00;96972.19;5512712;25;20660;-65
2024/05/05 06:16:20;;;;;;;5.75;2.40;;;;;;;12.71;100.00;96983.00;5545237;25;20659;-64
2024/05/05 06:18:45;;;;;;;5.70;2.67;;;;;;;12.78;100.00;96981.72;5476268;26;20262;-65
2024/05/05 06:21:17;;;;;;;5.60;2.40;;;;;;;12.86;100.00;96979.47;5508606;26;20260;-64
2024/05/05 06:23:42;;;;;;;5.60;2.42;;;;;;;12.65;100.00;96990.25;5508514;26;20322;-65
2024/05/05 06:26:08;;;;;;;6.70;2.40;;;;;;;12.56;100.00;96977.75;5508550;26;20222;-65
2024/05/05 06:28:33;;;;;;;5.70;2.63;;;;;;;12.39;100.00;96983.13;5476026;26;20215;-65
2024/05/05 06:30:59;;;;;;;5.60;2.30;;;;;;;12.35;100.00;96987.69;5508309;26;20210;-64
2024/05/05 06:33:24;;;;;;;5.60;2.40;;;;;;;12.28;100.00;96989.78;5475964;26;20622;-65
2024/05/05 06:35:50;;;;;;;5.87;2.37;;;;;;;12.35;100.00;96997.22;5508135;26;20218;-65
2024/05/05 06:40:18;;;;;;;5.30;2.00;;;;;;;12.19;100.00;97000.72;5582293;25;20543;-65
2024/05/05 06:42:43;;;;;;;5.80;2.70;;;;;;;12.25;100.00;97008.19;5545640;25;20540;-65
2024/05/05 06:45:09;;;;;;;6.57;2.60;;;;;;;12.23;100.00;97004.84;5545726;25;20639;-65
2024/05/05 06:47:35;;;;;;;5.47;2.20;;;;;;;12.36;100.00;97001.53;5545719;25;20213;-65
2024/05/05 06:50:00;;;;;;;5.93;2.70;;;;;;;12.51;100.00;97003.22;5545733;25;20316;-65
2024/05/05 06:52:26;;;;;;;5.70;2.40;;;;;;;12.56;100.00;97011.63;5543873;25;20228;-65
2024/05/05 06:54:51;;;;;;;5.77;2.30;;;;;;;12.63;100.00;97012.94;5543837;25;20557;-65
2024/05/05 06:57:17;;;;;;;5.90;2.20;;;;;;;12.65;100.00;97005.88;5545456;25;20292;-65
2024/05/05 06:59:43;;;;;;;5.80;2.57;;;;;;;12.84;100.00;97003.03;5512592;25;20213;-66
2024/05/05 07:04:16;;;;;;;5.72;2.50;;;;;;;12.92;100.00;97004.34;5329936;26;20585;-65
2024/05/05 07:06:42;;;;;;;5.40;2.20;;;;;;;13.05;100.00;97000.91;5330362;26;20254;-65
2024/05/05 07:09:08;;;;;;;5.47;2.30;;;;;;;13.18;100.00;96997.56;5330461;26;20231;-65
2024/05/05 07:11:33;;;;;;;5.67;2.30;;;;;;;13.21;100.00;96998.19;5330417;26;20262;-66
2024/05/05 07:13:59;;;;;;;5.90;2.23;;;;;;;13.31;100.00;97002.88;5330199;26;20289;-65
2024/05/05 07:16:24;;;;;;;5.70;2.67;;;;;;;13.17;100.00;96995.84;5328431;27;20615;-63
2024/05/05 07:18:50;;;;;;;5.40;2.20;;;;;;;13.34;100.00;96992.28;5330143;26;20231;-65
2024/05/05 07:21:15;;;;;;;5.60;2.40;;;;;;;13.60;100.00;96990.63;5330094;26;20231;-65
2024/05/05 07:23:41;;;;;;;7.37;2.60;;;;;;;13.70;100.00;96988.28;5330225;26;20684;-66
2024/05/05 07:28:15;;;;;;;5.68;2.35;;;;;;;13.60;100.00;96978.41;5582914;25;20630;-65
2024/05/05 07:30:40;;;;;;;5.80;2.33;;;;;;;13.71;100.00;96976.91;5545797;25;20648;-63
2024/05/05 07:33:09;;;;;;;6.17;2.20;;;;;;;13.82;100.00;96972.72;5545613;25;20278;-64
2024/05/05 07:35:35;;;;;;;5.70;2.35;;;;;;;13.89;100.00;96970.53;5543888;25;20682;-64
2024/05/05 07:38:01;;;;;;;5.60;2.20;;;;;;;13.80;100.00;96979.78;5544106;25;20223;-65
2024/05/05 07:40:26;;;;;;;5.27;2.00;;;;;;;13.99;100.00;96982.06;5545536;25;20223;-65
2024/05/05 07:42:52;;;;;;;5.60;2.20;;;;;;;14.10;100.00;96980.50;5545409;25;20261;-65
2024/05/05 07:45:17;;;;;;;5.60;2.10;;;;;;;14.12;100.00;96981.28;5545380;25;20217;-65
2024/05/05 07:47:43;;;;;;;6.00;2.20;;;;;;;14.37;100.00;96988.31;5545309;25;20586;-66
2024/05/05 07:52:09;;;;;;;5.30;2.00;;;;;;;14.76;100.00;96979.63;5583211;25;20310;-66
2024/05/05 07:54:34;;;;;;;5.40;2.20;;;;;;;14.46;100.00;96981.66;5543871;25;20313;-63
2024/05/05 07:57:02;;;;;;;5.60;2.17;;;;;;;14.49;100.00;96984.88;5543831;25;20231;-64
2024/05/05 07:59:27;;;;;;;5.80;2.10;;;;;;;14.26;100.00;96980.34;5545833;25;20765;-64
2024/05/05 08:01:53;;;;;;;5.23;1.90;;;;;;;14.42;100.00;96974.97;5545544;25;20230;-65
2024/05/05 08:04:18;;;;;;;5.40;2.10;;;;;;;14.26;100.00;96985.56;5545500;25;20218;-66
2024/05/05 08:06:44;;;;;;;5.40;2.00;;;;;;;14.13;100.00;96990.75;5545484;25;20228;-66
2024/05/05 08:09:09;;;;;;;5.50;2.03;;;;;;;14.18;100.00;96981.69;5543965;25;20232;-66
2024/05/05 08:11:35;;;;;;;5.63;1.90;;;;;;;14.26;100.00;96985.56;5545541;25;20220;-66
2024/05/05 08:16:06;;;;;;;5.47;1.83;;;;;;;14.34;100.00;96983.31;5583117;25;20320;-66
2024/05/05 08:18:32;;;;;;;5.20;1.83;;;;;;;14.20;100.00;96986.81;5545785;25;20319;-66
2024/05/05 08:20:57;;;;;;;5.40;2.20;;;;;;;14.33;100.00;96984.22;5545627;25;20256;-66
2024/05/05 08:23:23;;;;;;;5.30;2.00;;;;;;;14.15;100.00;96988.88;5545657;25;20613;-66
2024/05/05 08:25:49;;;;;;;5.40;2.20;;;;;;;14.02;100.00;96994.06;5545533;25;20217;-66
2024/05/05 08:28:14;;;;;;;5.30;2.17;;;;;;;14.26;100.00;96991.66;5545680;25;20600;-66
2024/05/05 08:30:40;;;;;;;5.60;2.10;;;;;;;14.83;100.00;96993.13;5545713;25;20214;-66
2024/05/05 08:33:05;;;;;;;5.43;2.20;;;;;;;15.08;100.00;96978.34;5545603;25;20683;-66
2024/05/05 08:35:31;;;;;;;5.40;2.07;;;;;;;15.57;100.00;96989.81;5543683;25;20248;-66
2024/05/05 08:40:04;;;;;;;6.38;2.33;;;;;;;15.59;100.00;96983.53;5583050;25;20732;-64
2024/05/05 08:42:40;;;;;;;5.28;2.10;;;;;;;15.37;100.00;96984.19;5545649;25;20595;-64
2024/05/05 08:45:10;;;;;;;5.38;2.00;;;;;;;15.43;100.00;96989.00;5543887;25;20640;-65
2024/05/05 08:47:36;;;;;;;5.40;1.95;;;;;;;14.89;100.00;96995.31;5545608;25;20266;-62
2024/05/05 08:50:02;;;;;;;5.33;2.10;;;;;;;14.70;100.00;96995.72;5543884;25;20224;-63
2024/05/05 08:52:29;;;;;;;5.40;2.30;;;;;;;14.78;100.00;96993.41;5543804;25;20228;-64
2024/05/05 08:54:55;;;;;;;5.40;2.13;;;;;;;14.36;100.00;96999.72;5543703;25;20452;-63
2024/05/05 08:57:20;;;;;;;6.27;2.40;;;;;;;13.75;100.00;97012.31;5545368;25;20262;-63
2024/05/05 08:59:48;;;;;;;5.37;2.30;;;;;;;13.58;100.00;97018.59;5545503;25;20290;-63
2024/05/05 09:04:18;;;;;;;5.23;2.00;;;;;;;13.52;100.00;97032.03;5397261;25;3978681;-63
2024/05/05 09:06:47;;;;;;;5.80;2.03;;;;;;;13.71;100.00;97032.53;5506872;26;20286;-62
2024/05/05 09:09:13;;;;;;;5.50;2.10;;;;;;;14.08;100.00;97034.59;5508630;25;20225;-63
2024/05/05 09:11:42;;;;;;;5.35;2.00;;;;;;;14.40;100.00;97028.13;5508438;25;20326;-63
2024/05/05 09:14:25;;;;;;;6.25;2.30;;;;;;;14.89;100.00;97026.69;5506893;26;20598;-64
2024/05/05 09:16:56;;;;;;;5.60;1.90;;;;;;;15.25;100.00;97021.69;5506319;26;20235;-64
2024/05/05 09:19:22;;;;;;;5.40;2.05;;;;;;;15.31;100.00;97009.00;5508582;25;20217;-66
2024/05/05 09:21:47;;;;;;;5.40;1.90;;;;;;;15.62;100.00;97014.69;5508368;25;20220;-65
2024/05/05 09:24:14;;;;;;;5.40;2.17;;;;;;;15.38;100.00;97003.34;5508320;25;20446;-63
2024/05/05 09:27:58;;;;;;;5.22;1.90;;;;;;;15.22;100.00;97008.81;5581979;25;20545;-65
2024/05/05 09:30:26;;;;;;;5.50;1.83;;;;;;;15.65;100.00;97014.50;5545689;25;20320;-66
2024/05/05 09:32:54;;;;;;;5.13;1.90;;;;;;;14.88;100.00;97011.09;5543786;25;20445;-63
2024/05/05 09:35:22;;;;;;;5.28;2.00;;;;;;;14.65;100.00;97017.88;5543835;25;20247;-64
2024/05/05 09:38:30;;;;;;;5.20;2.20;;;;;;;14.83;100.00;97010.59;5513238;25;20234;-65
2024/05/05 09:40:56;;;;;;;5.50;2.30;;;;;;;14.59;100.00;97009.50;5543665;25;20632;-65
2024/05/05 09:43:23;;;;;;;5.40;1.92;;;;;;;14.32;100.00;97008.69;5545404;25;20270;-64
2024/05/05 09:45:55;;;;;;;5.18;2.00;;;;;;;14.28;100.00;97007.19;5545426;25;20224;-63
2024/05/05 09:48:26;;;;;;;5.40;2.00;;;;;;;14.18;100.00;97017.41;5545356;25;20219;-63
2024/05/05 09:52:17;;;;;;;6.37;2.20;;;;;;;14.44;100.00;97013.09;5458373;25;2260169;-65
2024/05/05 09:55:04;;;;;;;5.40;2.10;;;;;;;14.45;100.00;97022.63;5506749;26;20239;-64
2024/05/05 09:57:48;;;;;;;5.32;2.20;;;;;;;14.28;100.00;97009.81;5506884;26;20255;-63
2024/05/05 10:00:15;;;;;;;5.40;2.20;;;;;;;14.24;100.00;97016.19;5508536;25;20601;-65
2024/05/05 10:02:43;;;;;;;6.10;2.28;;;;;;;14.70;100.00;97018.44;5508572;25;20223;-65
2024/05/05 10:05:13;;;;;;;6.43;2.60;;;;;;;14.52;100.00;97016.06;5506575;26;20224;-64
2024/05/05 10:07:47;;;;;;;6.32;2.30;;;;;;;14.32;100.00;97019.16;5506552;26;20239;-63
2024/05/05 10:10:20;;;;;;;5.28;2.10;;;;;;;14.43;100.00;97018.44;5506484;26;20313;-64
2024/05/05 10:12:50;;;;;;;5.40;2.28;;;;;;;14.30;100.00;97011.41;5508446;25;20223;-63
2024/05/05 10:15:50;;;;;;;5.50;2.23;;;;;;;14.54;100.00;97023.78;5128374;25;10026927;-63
2024/05/05 10:18:16;;;;;;;5.63;2.40;;;;;;;14.45;100.00;97025.22;5472157;26;20713;-63
2024/05/05 10:21:00;;;;;;;5.53;2.17;;;;;;;14.84;100.00;97018.31;5472237;26;20642;-65
2024/05/05 10:23:26;;;;;;;6.45;2.20;;;;;;;14.39;100.00;97020.41;5472218;26;20308;-63
2024/05/05 10:25:54;;;;;;;5.20;2.20;;;;;;;14.42;100.00;97021.97;5471998;26;20289;-64
2024/05/05 10:28:21;;;;;;;6.07;2.47;;;;;;;14.49;100.00;97026.69;5472236;26;20271;-65
2024/05/05 10:30:48;;;;;;;5.60;2.50;;;;;;;14.64;100.00;97030.09;5472231;26;20225;-64
2024/05/05 10:33:14;;;;;;;5.60;2.40;;;;;;;14.63;100.00;97033.66;5472023;26;20223;-65
2024/05/05 10:35:41;;;;;;;5.80;2.28;;;;;;;14.32;100.00;97021.75;5470182;26;20735;-63
2024/05/05 10:39:54;;;;;;;5.50;2.10;;;;;;;14.68;100.00;97017.66;5462979;25;2142387;-64
2024/05/05 10:42:21;;;;;;;6.32;2.70;;;;;;;14.50;100.00;97019.72;5507050;26;20273;-64
2024/05/05 10:44:48;;;;;;;6.25;2.50;;;;;;;14.45;100.00;97012.16;5476423;26;20328;-65
2024/05/05 10:47:16;;;;;;;5.45;2.20;;;;;;;14.70;100.00;97007.97;5508648;25;20359;-65
2024/05/05 10:49:43;;;;;;;5.40;2.17;;;;;;;14.84;100.00;97013.09;5506663;26;20224;-65
2024/05/05 10:52:10;;;;;;;5.50;2.42;;;;;;;14.75;100.00;97009.34;5506731;26;20241;-65
2024/05/05 10:54:35;;;;;;;5.70;2.40;;;;;;;15.06;100.00;97001.16;5508284;25;20224;-65
2024/05/05 10:57:01;;;;;;;5.60;2.37;;;;;;;15.46;100.00;96995.78;5508459;25;20262;-65
2024/05/05 10:59:27;;;;;;;6.47;2.30;;;;;;;15.64;100.00;96997.09;5506513;26;20255;-66
2024/05/05 11:03:44;;;;;;;5.70;2.22;;;;;;;15.51;100.00;97006.78;5583269;25;20312;-66
2024/05/05 11:06:12;;;;;;;5.68;2.30;;;;;;;15.64;100.00;96996.28;5544191;25;20224;-65
2024/05/05 11:08:48;;;;;;;5.80;2.30;;;;;;;15.68;100.00;96995.97;5544133;25;20569;-66
2024/05/05 11:11:22;;;;;;;5.90;2.50;;;;;;;15.69;100.00;97000.22;5544341;25;20755;-65
2024/05/05 11:13:48;;;;;;;5.80;2.53;;;;;;;15.62;100.00;97004.22;5543679;25;20237;-66
2024/05/05 11:16:16;;;;;;;5.60;2.30;;;;;;;15.73;100.00;97000.84;5544064;25;20790;-65
2024/05/05 11:18:48;;;;;;;5.95;2.30;;;;;;;15.33;100.00;97019.34;5544004;25;20256;-65
2024/05/05 11:21:16;;;;;;;17.35;2.70;;;;;;;15.42;100.00;97023.94;5543929;25;20254;-65
2024/05/05 11:23:44;;;;;;;5.45;2.40;;;;;;;15.27;100.00;97031.09;5545687;25;20270;-66
2024/05/05 11:27:39;;;;;;;5.70;2.33;;;;;;;15.35;100.00;97010.47;5583057;25;20527;-66
2024/05/05 11:30:05;;;;;;;5.40;2.40;;;;;;;15.97;100.00;97014.03;5545753;25;20636;-66
2024/05/05 11:32:41;;;;;;;5.55;2.45;;;;;;;16.10;100.00;97001.69;5543856;25;20680;-67
2024/05/05 11:35:08;;;;;;;5.60;2.40;;;;;;;16.64;100.00;96989.84;5543858;25;20232;-67
2024/05/05 11:37:34;;;;;;;5.57;2.30;;;;;;;17.03;100.00;96976.50;5545547;25;20267;-67
2024/05/05 11:40:01;;;;;;;5.57;2.23;;;;;;;16.97;100.00;96977.81;5545485;25;20681;-67
2024/05/05 11:42:28;;;;;;;5.53;2.50;;;;;;;16.75;100.00;96973.31;5545464;25;20438;-67
2024/05/05 11:44:54;;;;;;;5.30;2.20;;;;;;;16.72;100.00;96975.34;5543963;25;20435;-67
2024/05/05 11:47:20;;;;;;;5.60;2.40;;;;;;;16.39;100.00;96983.00;5543479;25;20455;-67
2024/05/05 11:52:16;;;;;;;5.50;2.40;;;;;;;15.49;100.00;96990.34;5582954;25;20447;-67
2024/05/05 11:55:35;;;;;;;5.43;2.40;;;;;;;15.70;100.00;96994.06;5513062;25;20434;-79
2024/05/05 11:58:02;;;;;;;5.53;2.37;;;;;;;15.72;100.00;97007.88;5512741;25;20500;-76
2024/05/05 12:00:27;;;;;;;7.07;2.70;;;;;;;15.52;100.00;97004.06;5545652;25;20433;-68
2024/05/05 12:02:54;;;;;;;5.37;2.13;;;;;;;15.59;100.00;97001.84;5545588;25;20502;-66
2024/05/05 12:05:20;;;;;;;5.90;2.30;;;;;;;15.57;100.00;97006.34;5545639;25;20221;-66
2024/05/05 12:08:18;;;;;;;5.93;2.37;;;;;;;15.63;100.00;97007.72;5512756;25;21022;-66
2024/05/05 12:10:44;;;;;;;5.97;2.40;;;;;;;15.65;100.00;97013.66;5545231;25;20254;-66
2024/05/05 12:15:38;;;;;;;5.60;2.50;;;;;;;15.55;100.00;97005.59;5582730;25;20314;-65
2024/05/05 12:18:03;;;;;;;6.43;2.70;;;;;;;15.66;100.00;97000.47;5544046;25;20615;-67
2024/05/05 12:20:49;;;;;;;7.90;2.50;;;;;;;16.02;100.00;97006.66;5543971;25;20308;-66
2024/05/05 12:23:15;;;;;;;5.55;2.20;;;;;;;16.14;100.00;96998.88;5545587;25;20217;-65